sensor_id;sensor_type;location;lat;lon;timestamp;pressure;altitude;pressure_sealevel;temperature;humidity
25498;BME280;13406;53.380;7.226;2022-09-17T00:00:11;100913.78;;;12.81;100.00
25498;BME280;13406;53.380;7.226;2022-09-17T00:02:37;100920.59;;;12.84;100.00
25498;BME280;13406;53.380;7.226;2022-09-17T00:05:03;100909.25;;;12.82;100.00
25498;BME280;13406;53.380;7.226;2022-09-17T00:07:28;100915.47;;;12.69;100.00
25498;BME280;13406;53.380;7.226;2022-09-17T00:09:54;100913.31;;;12.98;100.00
25498;BME280;13406;53.380;7.226;2022-09-17T00:12:19;100861.22;;;12.72;100.00
25498;BME280;13406;53.380;7.226;2022-09-17T00:14:44;100903.84;;;12.82;100.00
25498;BME280;13406;53.380;7.226;2022-09-17T00:17:10;100880.50;;;12.76;100.00
25498;BME280;13406;53.380;7.226;2022-09-17T00:19:35;100907.16;;;12.91;100.00
25498;BME280;13406;53.380;7.226;2022-09-17T00:22:00;100895.16;;;12.80;100.00
25498;BME280;13406;53.380;7.226;2022-09-17T00:24:26;100846.78;;;12.60;100.00
25498;BME280;13406;53.380;7.226;2022-09-17T00:26:51;100893.44;;;12.92;100.00
25498;BME280;13406;53.380;7.226;2022-09-17T00:29:17;100910.59;;;13.04;100.00
25498;BME280;13406;53.380;7.226;2022-09-17T00:31:43;100864.09;;;12.77;100.00
25498;BME280;13406;53.380;7.226;2022-09-17T00:34:08;100899.63;;;13.06;100.00
25498;BME280;13406;53.380;7.226;2022-09-17T00:36:35;100877.25;;;12.99;100.00
25498;BME280;13406;53.380;7.226;2022-09-17T00:39:03;100882.84;;;13.10;100.00
25498;BME280;13406;53.380;7.226;2022-09-17T00:41:31;100907.59;;;13.32;100.00
25498;BME280;13406;53.380;7.226;2022-09-17T00:47:07;100891.09;;;13.09;100.00
25498;BME280;13406;53.380;7.226;2022-09-17T00:49:33;100906.22;;;13.17;100.00
25498;BME280;13406;53.380;7.226;2022-09-17T00:52:03;100914.03;;;13.31;100.00
25498;BME280;13406;53.380;7.226;2022-09-17T00:54:32;100907.22;;;13.16;100.00
25498;BME280;13406;53.380;7.226;2022-09-17T00:56:58;100915.91;;;13.31;100.00
25498;BME280;13406;53.380;7.226;2022-09-17T00:59:24;100912.66;;;13.09;100.00
25498;BME280;13406;53.380;7.226;2022-09-17T01:01:49;100930.88;;;13.07;100.00
25498;BME280;13406;53.380;7.226;2022-09-17T01:04:20;100883.34;;;12.81;100.00
25498;BME280;13406;53.380;7.226;2022-09-17T01:07:18;100873.09;;;12.38;100.00
25498;BME280;13406;53.380;7.226;2022-09-17T01:10:05;100932.09;;;12.39;100.00
25498;BME280;13406;53.380;7.226;2022-09-17T01:20:38;100944.28;;;12.49;100.00
25498;BME280;13406;53.380;7.226;2022-09-17T01:23:04;100945.53;;;12.53;100.00
25498;BME280;13406;53.380;7.226;2022-09-17T01:28:37;100966.22;;;12.39;100.00
25498;BME280;13406;53.380;7.226;2022-09-17T01:31:32;100868.75;;;11.77;100.00
25498;BME280;13406;53.380;7.226;2022-09-17T01:34:21;100912.81;;;11.69;100.00
25498;BME280;13406;53.380;7.226;2022-09-17T01:37:05;100986.03;;;11.91;100.00
25498;BME280;13406;53.380;7.226;2022-09-17T01:39:48;100964.97;;;12.15;100.00
25498;BME280;13406;53.380;7.226;2022-09-17T01:47:38;100852.63;;;11.37;100.00
25498;BME280;13406;53.380;7.226;2022-09-17T01:50:17;100914.66;;;11.82;100.00
25498;BME280;13406;53.380;7.226;2022-09-17T01:52:47;100872.91;;;11.73;100.00
25498;BME280;13406;53.380;7.226;2022-09-17T01:55:15;100902.53;;;11.86;100.00
25498;BME280;13406;53.380;7.226;2022-09-17T01:58:03;100956.72;;;12.16;100.00
25498;BME280;13406;53.380;7.226;2022-09-17T02:00:31;100863.78;;;11.54;100.00
25498;BME280;13406;53.380;7.226;2022-09-17T02:03:07;100917.53;;;11.74;100.00
25498;BME280;13406;53.380;7.226;2022-09-17T02:05:44;100857.78;;;11.39;100.00
25498;BME280;13406;53.380;7.226;2022-09-17T02:08:15;100867.47;;;11.40;100.00
25498;BME280;13406;53.380;7.226;2022-09-17T02:13:41;100930.84;;;12.09;100.00
25498;BME280;13406;53.380;7.226;2022-09-17T02:16:12;100916.16;;;12.05;100.00
25498;BME280;13406;53.380;7.226;2022-09-17T02:18:48;100823.28;;;11.42;100.00
25498;BME280;13406;53.380;7.226;2022-09-17T02:21:43;100949.69;;;12.35;100.00
25498;BME280;13406;53.380;7.226;2022-09-17T02:24:15;100952.75;;;12.32;100.00
25498;BME280;13406;53.380;7.226;2022-09-17T02:29:34;100845.81;;;11.68;100.00
25498;BME280;13406;53.380;7.226;2022-09-17T02:32:02;100878.91;;;11.82;100.00
25498;BME280;13406;53.380;7.226;2022-09-17T02:34:27;100808.63;;;11.51;100.00
25498;BME280;13406;53.380;7.226;2022-09-17T02:36:54;100847.69;;;11.74;100.00
25498;BME280;13406;53.380;7.226;2022-09-17T02:39:20;100860.28;;;11.67;100.00
25498;BME280;13406;53.380;7.226;2022-09-17T02:44:41;100951.94;;;12.32;100.00
25498;BME280;13406;53.380;7.226;2022-09-17T02:52:53;100940.75;;;12.15;100.00
25498;BME280;13406;53.380;7.226;2022-09-17T02:55:49;100930.84;;;12.42;100.00
25498;BME280;13406;53.380;7.226;2022-09-17T02:58:24;100838.59;;;11.82;100.00
25498;BME280;13406;53.380;7.226;2022-09-17T03:00:51;100864.47;;;11.89;100.00
25498;BME280;13406;53.380;7.226;2022-09-17T03:03:28;100917.00;;;12.38;100.00
25498;BME280;13406;53.380;7.226;2022-09-17T03:05:55;100918.44;;;12.48;100.00
25498;BME280;13406;53.380;7.226;2022-09-17T03:08:39;100903.13;;;12.41;100.00
25498;BME280;13406;53.380;7.226;2022-09-17T03:11:05;100933.72;;;12.54;100.00
25498;BME280;13406;53.380;7.226;2022-09-17T03:13:33;100939.94;;;12.54;100.00
25498;BME280;13406;53.380;7.226;2022-09-17T03:16:03;100879.13;;;12.20;100.00
25498;BME280;13406;53.380;7.226;2022-09-17T03:18:29;100930.81;;;12.55;100.00
25498;BME280;13406;53.380;7.226;2022-09-17T03:20:55;100892.53;;;12.47;100.00
25498;BME280;13406;53.380;7.226;2022-09-17T03:23:20;100893.41;;;12.34;100.00
25498;BME280;13406;53.380;7.226;2022-09-17T03:25:46;100934.78;;;12.53;100.00
25498;BME280;13406;53.380;7.226;2022-09-17T03:28:13;100836.97;;;11.87;100.00
25498;BME280;13406;53.380;7.226;2022-09-17T03:30:39;100835.94;;;12.02;100.00
25498;BME280;13406;53.380;7.226;2022-09-17T03:33:04;100920.88;;;12.49;100.00
25498;BME280;13406;53.380;7.226;2022-09-17T03:35:30;100900.00;;;12.51;100.00
25498;BME280;13406;53.380;7.226;2022-09-17T03:37:55;100914.88;;;12.54;100.00
25498;BME280;13406;53.380;7.226;2022-09-17T03:40:20;100786.31;;;11.77;100.00
25498;BME280;13406;53.380;7.226;2022-09-17T03:42:46;100888.81;;;12.41;100.00
25498;BME280;13406;53.380;7.226;2022-09-17T03:45:11;100896.06;;;12.40;100.00
25498;BME280;13406;53.380;7.226;2022-09-17T03:47:37;100837.56;;;12.16;100.00
25498;BME280;13406;53.380;7.226;2022-09-17T03:50:03;100866.72;;;12.26;100.00
25498;BME280;13406;53.380;7.226;2022-09-17T03:52:29;100929.56;;;12.58;100.00
25498;BME280;13406;53.380;7.226;2022-09-17T03:54:54;100901.25;;;12.42;100.00
25498;BME280;13406;53.380;7.226;2022-09-17T03:57:20;100902.69;;;12.51;100.00
25498;BME280;13406;53.380;7.226;2022-09-17T03:59:46;100885.72;;;12.37;100.00
25498;BME280;13406;53.380;7.226;2022-09-17T04:02:12;100837.16;;;11.99;100.00
25498;BME280;13406;53.380;7.226;2022-09-17T04:04:37;100928.94;;;12.69;100.00
25498;BME280;13406;53.380;7.226;2022-09-17T04:07:03;100843.19;;;12.01;100.00
25498;BME280;13406;53.380;7.226;2022-09-17T04:09:28;100920.69;;;12.51;100.00
25498;BME280;13406;53.380;7.226;2022-09-17T04:11:55;100896.50;;;12.37;100.00
25498;BME280;13406;53.380;7.226;2022-09-17T04:14:20;100905.00;;;12.21;100.00
25498;BME280;13406;53.380;7.226;2022-09-17T04:16:45;100928.97;;;12.56;100.00
25498;BME280;13406;53.380;7.226;2022-09-17T04:19:11;100805.53;;;11.94;100.00
25498;BME280;13406;53.380;7.226;2022-09-17T04:21:36;100927.31;;;12.61;100.00
25498;BME280;13406;53.380;7.226;2022-09-17T04:24:02;100943.03;;;12.64;100.00
25498;BME280;13406;53.380;7.226;2022-09-17T04:26:27;100933.88;;;12.72;100.00
25498;BME280;13406;53.380;7.226;2022-09-17T04:28:53;100955.00;;;12.69;100.00
25498;BME280;13406;53.380;7.226;2022-09-17T04:31:18;100899.78;;;12.46;100.00
25498;BME280;13406;53.380;7.226;2022-09-17T04:33:43;100858.69;;;12.12;100.00
25498;BME280;13406;53.380;7.226;2022-09-17T04:36:09;100674.50;;;10.70;100.00
25498;BME280;13406;53.380;7.226;2022-09-17T04:38:34;100950.91;;;12.59;100.00
25498;BME280;13406;53.380;7.226;2022-09-17T04:41:00;100791.06;;;11.56;100.00
25498;BME280;13406;53.380;7.226;2022-09-17T04:43:25;100924.00;;;12.39;100.00
25498;BME280;13406;53.380;7.226;2022-09-17T04:45:51;100898.38;;;12.17;100.00
25498;BME280;13406;53.380;7.226;2022-09-17T04:48:16;100980.50;;;12.26;100.00
25498;BME280;13406;53.380;7.226;2022-09-17T04:50:42;100936.22;;;12.22;100.00
25498;BME280;13406;53.380;7.226;2022-09-17T04:53:07;100892.81;;;11.92;100.00
25498;BME280;13406;53.380;7.226;2022-09-17T04:55:33;100926.50;;;12.34;100.00
25498;BME280;13406;53.380;7.226;2022-09-17T04:57:58;100952.34;;;12.49;100.00
25498;BME280;13406;53.380;7.226;2022-09-17T05:00:24;100806.34;;;11.75;100.00
25498;BME280;13406;53.380;7.226;2022-09-17T05:02:52;100952.53;;;12.60;100.00
25498;BME280;13406;53.380;7.226;2022-09-17T05:05:18;100951.31;;;12.50;100.00
25498;BME280;13406;53.380;7.226;2022-09-17T05:07:44;100870.25;;;11.93;100.00
25498;BME280;13406;53.380;7.226;2022-09-17T05:10:10;100860.75;;;11.97;100.00
25498;BME280;13406;53.380;7.226;2022-09-17T05:12:36;100944.69;;;12.46;100.00
25498;BME280;13406;53.380;7.226;2022-09-17T05:15:02;100950.91;;;12.59;100.00
25498;BME280;13406;53.380;7.226;2022-09-17T05:17:28;100840.72;;;11.86;100.00
25498;BME280;13406;53.380;7.226;2022-09-17T05:19:53;100891.97;;;12.18;100.00
25498;BME280;13406;53.380;7.226;2022-09-17T05:22:19;100965.00;;;12.41;100.00
25498;BME280;13406;53.380;7.226;2022-09-17T05:24:45;100907.25;;;12.17;100.00
25498;BME280;13406;53.380;7.226;2022-09-17T05:27:10;100846.03;;;11.73;100.00
25498;BME280;13406;53.380;7.226;2022-09-17T05:29:36;100820.81;;;11.61;100.00
25498;BME280;13406;53.380;7.226;2022-09-17T05:32:03;100859.69;;;11.78;100.00
25498;BME280;13406;53.380;7.226;2022-09-17T05:34:28;100964.56;;;12.44;100.00
25498;BME280;13406;53.380;7.226;2022-09-17T05:36:53;100830.75;;;11.67;100.00
25498;BME280;13406;53.380;7.226;2022-09-17T05:39:19;100934.78;;;12.39;100.00
25498;BME280;13406;53.380;7.226;2022-09-17T05:41:47;100948.81;;;12.55;100.00
25498;BME280;13406;53.380;7.226;2022-09-17T05:44:12;100854.72;;;11.82;100.00
25498;BME280;13406;53.380;7.226;2022-09-17T05:46:37;100939.75;;;12.36;100.00
25498;BME280;13406;53.380;7.226;2022-09-17T05:49:03;100922.19;;;12.27;100.00
25498;BME280;13406;53.380;7.226;2022-09-17T05:51:29;100929.41;;;12.39;100.00
25498;BME280;13406;53.380;7.226;2022-09-17T05:53:54;100966.41;;;12.64;100.00
25498;BME280;13406;53.380;7.226;2022-09-17T05:56:20;100847.09;;;11.85;100.00
25498;BME280;13406;53.380;7.226;2022-09-17T05:58:46;100893.19;;;12.22;100.00
25498;BME280;13406;53.380;7.226;2022-09-17T06:01:11;100772.47;;;11.34;100.00
25498;BME280;13406;53.380;7.226;2022-09-17T06:03:40;100653.63;;;10.52;100.00
25498;BME280;13406;53.380;7.226;2022-09-17T06:06:06;100552.81;;;9.96;100.00
25498;BME280;13406;53.380;7.226;2022-09-17T06:08:32;100828.25;;;11.52;100.00
25498;BME280;13406;53.380;7.226;2022-09-17T06:11:03;100959.19;;;12.38;100.00
25498;BME280;13406;53.380;7.226;2022-09-17T06:13:29;100653.00;;;10.50;100.00
25498;BME280;13406;53.380;7.226;2022-09-17T06:15:55;100646.84;;;10.56;100.00
25498;BME280;13406;53.380;7.226;2022-09-17T06:18:20;100613.78;;;10.43;100.00
25498;BME280;13406;53.380;7.226;2022-09-17T06:20:57;100668.34;;;10.90;100.00
25498;BME280;13406;53.380;7.226;2022-09-17T06:23:24;101015.88;;;12.76;100.00
25498;BME280;13406;53.380;7.226;2022-09-17T06:25:52;100623.19;;;10.18;100.00
25498;BME280;13406;53.380;7.226;2022-09-17T06:28:18;100598.13;;;10.46;100.00
25498;BME280;13406;53.380;7.226;2022-09-17T06:30:44;100777.63;;;11.29;100.00
25498;BME280;13406;53.380;7.226;2022-09-17T06:33:09;100992.88;;;12.80;100.00
25498;BME280;13406;53.380;7.226;2022-09-17T06:35:35;101030.13;;;12.90;100.00
25498;BME280;13406;53.380;7.226;2022-09-17T06:38:03;100654.28;;;10.81;100.00
25498;BME280;13406;53.380;7.226;2022-09-17T06:40:29;100647.72;;;10.97;100.00
25498;BME280;13406;53.380;7.226;2022-09-17T06:42:58;100577.31;;;10.75;100.00
25498;BME280;13406;53.380;7.226;2022-09-17T06:45:27;100733.00;;;11.54;100.00
25498;BME280;13406;53.380;7.226;2022-09-17T06:47:52;100598.38;;;10.98;100.00
25498;BME280;13406;53.380;7.226;2022-09-17T06:50:18;100562.66;;;10.77;100.00
25498;BME280;13406;53.380;7.226;2022-09-17T06:52:48;100744.53;;;11.82;100.00
25498;BME280;13406;53.380;7.226;2022-09-17T06:55:13;100578.34;;;10.94;100.00
25498;BME280;13406;53.380;7.226;2022-09-17T06:57:40;100672.25;;;11.14;100.00
25498;BME280;13406;53.380;7.226;2022-09-17T07:00:06;100646.88;;;11.09;100.00
25498;BME280;13406;53.380;7.226;2022-09-17T07:02:31;100706.97;;;11.28;100.00
25498;BME280;13406;53.380;7.226;2022-09-17T07:04:57;100623.53;;;10.70;100.00
25498;BME280;13406;53.380;7.226;2022-09-17T07:07:22;100780.75;;;11.66;100.00
25498;BME280;13406;53.380;7.226;2022-09-17T07:09:48;100777.63;;;11.75;100.00
25498;BME280;13406;53.380;7.226;2022-09-17T07:12:13;100587.63;;;10.84;100.00
25498;BME280;13406;53.380;7.226;2022-09-17T07:14:39;100762.31;;;11.83;100.00
25498;BME280;13406;53.380;7.226;2022-09-17T07:17:04;100544.50;;;10.79;100.00
25498;BME280;13406;53.380;7.226;2022-09-17T07:19:29;100701.78;;;11.53;100.00
25498;BME280;13406;53.380;7.226;2022-09-17T07:21:55;100815.44;;;12.14;100.00
25498;BME280;13406;53.380;7.226;2022-09-17T07:24:20;100559.56;;;11.00;100.00
25498;BME280;13406;53.380;7.226;2022-09-17T07:26:45;100730.06;;;11.83;100.00
25498;BME280;13406;53.380;7.226;2022-09-17T07:29:11;100629.53;;;11.25;100.00
25498;BME280;13406;53.380;7.226;2022-09-17T07:31:36;100937.03;;;13.27;100.00
25498;BME280;13406;53.380;7.226;2022-09-17T07:34:02;100982.50;;;13.55;100.00
25498;BME280;13406;53.380;7.226;2022-09-17T07:36:27;100787.50;;;12.15;100.00
25498;BME280;13406;53.380;7.226;2022-09-17T07:38:53;100710.47;;;11.42;100.00
25498;BME280;13406;53.380;7.226;2022-09-17T07:41:18;100799.91;;;12.23;100.00
25498;BME280;13406;53.380;7.226;2022-09-17T07:44:04;100969.38;;;13.27;100.00
25498;BME280;13406;53.380;7.226;2022-09-17T07:46:31;100604.78;;;10.77;100.00
25498;BME280;13406;53.380;7.226;2022-09-17T07:48:57;100788.38;;;11.89;100.00
25498;BME280;13406;53.380;7.226;2022-09-17T07:51:24;100615.50;;;11.17;100.00
25498;BME280;13406;53.380;7.226;2022-09-17T07:53:51;100587.41;;;10.93;100.00
25498;BME280;13406;53.380;7.226;2022-09-17T07:56:16;100799.69;;;12.17;100.00
25498;BME280;13406;53.380;7.226;2022-09-17T07:58:42;100742.22;;;12.12;100.00
25498;BME280;13406;53.380;7.226;2022-09-17T08:01:10;100602.28;;;11.28;100.00
25498;BME280;13406;53.380;7.226;2022-09-17T08:03:36;100664.50;;;11.97;100.00
25498;BME280;13406;53.380;7.226;2022-09-17T08:06:08;100741.78;;;12.15;100.00
25498;BME280;13406;53.380;7.226;2022-09-17T08:08:35;101004.94;;;13.94;100.00
25498;BME280;13406;53.380;7.226;2022-09-17T08:11:06;100629.03;;;11.62;100.00
25498;BME280;13406;53.380;7.226;2022-09-17T08:13:32;100628.56;;;11.98;100.00
25498;BME280;13406;53.380;7.226;2022-09-17T08:16:05;100808.59;;;13.21;100.00
25498;BME280;13406;53.380;7.226;2022-09-17T08:18:32;100609.75;;;11.98;100.00
25498;BME280;13406;53.380;7.226;2022-09-17T08:20:59;100584.13;;;11.89;100.00
25498;BME280;13406;53.380;7.226;2022-09-17T08:23:26;100573.69;;;12.12;100.00
25498;BME280;13406;53.380;7.226;2022-09-17T08:25:56;100808.56;;;13.60;100.00
25498;BME280;13406;53.380;7.226;2022-09-17T08:28:23;100847.25;;;13.72;100.00
25498;BME280;13406;53.380;7.226;2022-09-17T08:30:50;100866.59;;;13.62;100.00
25498;BME280;13406;53.380;7.226;2022-09-17T08:33:16;100614.53;;;12.28;100.00
25498;BME280;13406;53.380;7.226;2022-09-17T08:35:42;100685.25;;;12.41;100.00
25498;BME280;13406;53.380;7.226;2022-09-17T08:38:08;100764.53;;;12.77;100.00
25498;BME280;13406;53.380;7.226;2022-09-17T08:40:42;100711.97;;;12.23;100.00
25498;BME280;13406;53.380;7.226;2022-09-17T08:43:15;100696.84;;;12.35;100.00
25498;BME280;13406;53.380;7.226;2022-09-17T08:45:42;100641.56;;;12.01;100.00
25498;BME280;13406;53.380;7.226;2022-09-17T08:48:10;100640.06;;;12.12;100.00
25498;BME280;13406;53.380;7.226;2022-09-17T08:50:39;100642.78;;;12.43;100.00
25498;BME280;13406;53.380;7.226;2022-09-17T09:01:55;100748.31;;;12.91;100.00
25498;BME280;13406;53.380;7.226;2022-09-17T09:07:17;100750.53;;;13.32;100.00
25498;BME280;13406;53.380;7.226;2022-09-17T09:09:50;100688.06;;;13.42;100.00
25498;BME280;13406;53.380;7.226;2022-09-17T09:12:31;100746.19;;;13.56;100.00
25498;BME280;13406;53.380;7.226;2022-09-17T09:15:05;100591.63;;;12.82;100.00
25498;BME280;13406;53.380;7.226;2022-09-17T09:17:40;100691.63;;;13.10;100.00
25498;BME280;13406;53.380;7.226;2022-09-17T09:20:16;100594.25;;;12.32;100.00
25498;BME280;13406;53.380;7.226;2022-09-17T09:22:48;100577.28;;;11.93;100.00
25498;BME280;13406;53.380;7.226;2022-09-17T09:28:31;100763.91;;;12.75;100.00
25498;BME280;13406;53.380;7.226;2022-09-17T09:31:15;100985.38;;;13.99;100.00
25498;BME280;13406;53.380;7.226;2022-09-17T09:33:46;100829.38;;;12.62;100.00
25498;BME280;13406;53.380;7.226;2022-09-17T09:36:14;100595.25;;;11.07;100.00
25498;BME280;13406;53.380;7.226;2022-09-17T09:39:20;100776.09;;;12.26;100.00
25498;BME280;13406;53.380;7.226;2022-09-17T09:41:48;100585.25;;;11.61;100.00
25498;BME280;13406;53.380;7.226;2022-09-17T09:44:18;100774.03;;;12.80;100.00
25498;BME280;13406;53.380;7.226;2022-09-17T09:47:05;100757.97;;;12.98;100.00
25498;BME280;13406;53.380;7.226;2022-09-17T09:55:41;100956.63;;;15.23;100.00
25498;BME280;13406;53.380;7.226;2022-09-17T09:58:38;100827.16;;;13.68;100.00
25498;BME280;13406;53.380;7.226;2022-09-17T10:01:17;100807.44;;;13.04;100.00
25498;BME280;13406;53.380;7.226;2022-09-17T10:03:48;100764.47;;;12.46;100.00
25498;BME280;13406;53.380;7.226;2022-09-17T10:06:16;100719.69;;;12.06;100.00
25498;BME280;13406;53.380;7.226;2022-09-17T10:11:24;100844.50;;;13.08;100.00
25498;BME280;13406;53.380;7.226;2022-09-17T10:13:49;100680.75;;;12.22;100.00
25498;BME280;13406;53.380;7.226;2022-09-17T10:18:44;100793.38;;;13.40;100.00
25498;BME280;13406;53.380;7.226;2022-09-17T10:21:32;100730.75;;;13.13;100.00
25498;BME280;13406;53.380;7.226;2022-09-17T10:24:00;100654.81;;;12.73;100.00
25498;BME280;13406;53.380;7.226;2022-09-17T10:26:29;100640.47;;;12.85;100.00
25498;BME280;13406;53.380;7.226;2022-09-17T10:29:01;101016.91;;;15.05;100.00
25498;BME280;13406;53.380;7.226;2022-09-17T10:31:50;100719.97;;;13.45;100.00
25498;BME280;13406;53.380;7.226;2022-09-17T10:34:26;100707.03;;;13.53;100.00
25498;BME280;13406;53.380;7.226;2022-09-17T10:36:53;100649.31;;;13.43;100.00
25498;BME280;13406;53.380;7.226;2022-09-17T10:41:56;100855.00;;;14.55;100.00
25498;BME280;13406;53.380;7.226;2022-09-17T10:44:24;100877.66;;;14.73;100.00
25498;BME280;13406;53.380;7.226;2022-09-17T10:46:51;100898.59;;;14.96;100.00
25498;BME280;13406;53.380;7.226;2022-09-17T11:00:29;100892.09;;;15.15;100.00
25498;BME280;13406;53.380;7.226;2022-09-17T11:16:38;100852.00;;;15.30;100.00
25498;BME280;13406;53.380;7.226;2022-09-17T11:27:23;100988.13;;;14.74;100.00
25498;BME280;13406;53.380;7.226;2022-09-17T11:30:14;100991.34;;;14.83;100.00
25498;BME280;13406;53.380;7.226;2022-09-17T11:33:03;100978.91;;;15.19;100.00
25498;BME280;13406;53.380;7.226;2022-09-17T11:35:46;100938.19;;;15.02;100.00
25498;BME280;13406;53.380;7.226;2022-09-17T11:41:07;100911.75;;;15.04;100.00
25498;BME280;13406;53.380;7.226;2022-09-17T11:43:38;100975.50;;;15.60;100.00
25498;BME280;13406;53.380;7.226;2022-09-17T11:46:13;100842.50;;;15.09;100.00
25498;BME280;13406;53.380;7.226;2022-09-17T11:51:32;100970.88;;;16.09;100.00
25498;BME280;13406;53.380;7.226;2022-09-17T11:56:46;100891.56;;;15.67;100.00
25498;BME280;13406;53.380;7.226;2022-09-17T11:59:15;100962.44;;;16.29;100.00
25498;BME280;13406;53.380;7.226;2022-09-17T12:01:57;100819.84;;;15.10;100.00
25498;BME280;13406;53.380;7.226;2022-09-17T12:04:42;100989.00;;;16.20;100.00
25498;BME280;13406;53.380;7.226;2022-09-17T12:10:01;100881.16;;;15.82;100.00
25498;BME280;13406;53.380;7.226;2022-09-17T12:12:34;100783.72;;;14.93;100.00
25498;BME280;13406;53.380;7.226;2022-09-17T12:15:13;100809.03;;;15.52;100.00
25498;BME280;13406;53.380;7.226;2022-09-17T12:17:49;100588.56;;;14.14;100.00
25498;BME280;13406;53.380;7.226;2022-09-17T12:20:30;100797.81;;;15.25;100.00
25498;BME280;13406;53.380;7.226;2022-09-17T12:22:59;100936.88;;;16.60;100.00
25498;BME280;13406;53.380;7.226;2022-09-17T12:25:34;100920.75;;;16.07;100.00
25498;BME280;13406;53.380;7.226;2022-09-17T12:28:13;100722.84;;;15.21;100.00
25498;BME280;13406;53.380;7.226;2022-09-17T12:30:50;100704.97;;;14.78;100.00
25498;BME280;13406;53.380;7.226;2022-09-17T12:33:26;100843.09;;;15.53;100.00
25498;BME280;13406;53.380;7.226;2022-09-17T12:49:51;100966.53;;;17.14;100.00
25498;BME280;13406;53.380;7.226;2022-09-17T12:55:06;100971.28;;;17.07;100.00
25498;BME280;13406;53.380;7.226;2022-09-17T12:58:04;100889.44;;;16.69;100.00
25498;BME280;13406;53.380;7.226;2022-09-17T13:00:38;100824.56;;;16.63;100.00
25498;BME280;13406;53.380;7.226;2022-09-17T13:03:26;100595.28;;;15.30;100.00
25498;BME280;13406;53.380;7.226;2022-09-17T13:16:59;100913.94;;;16.39;100.00
25498;BME280;13406;53.380;7.226;2022-09-17T13:19:44;100988.47;;;17.01;100.00
25498;BME280;13406;53.380;7.226;2022-09-17T13:22:25;100837.97;;;16.81;100.00
25498;BME280;13406;53.380;7.226;2022-09-17T13:25:05;100693.06;;;15.74;100.00
25498;BME280;13406;53.380;7.226;2022-09-17T13:27:32;100930.28;;;16.56;100.00
25498;BME280;13406;53.380;7.226;2022-09-17T13:29:59;100685.59;;;15.23;100.00
25498;BME280;13406;53.380;7.226;2022-09-17T13:37:41;100999.06;;;17.02;100.00
25498;BME280;13406;53.380;7.226;2022-09-17T13:40:33;100868.03;;;15.97;100.00
25498;BME280;13406;53.380;7.226;2022-09-17T13:45:29;100808.47;;;15.20;100.00
25498;BME280;13406;53.380;7.226;2022-09-17T13:48:09;100750.00;;;15.26;100.00
25498;BME280;13406;53.380;7.226;2022-09-17T13:50:40;100997.31;;;17.48;100.00
25498;BME280;13406;53.380;7.226;2022-09-17T13:58:21;100866.22;;;14.89;100.00
25498;BME280;13406;53.380;7.226;2022-09-17T14:13:56;100994.66;;;17.36;100.00
25498;BME280;13406;53.380;7.226;2022-09-17T14:19:22;101013.56;;;17.08;100.00
25498;BME280;13406;53.380;7.226;2022-09-17T14:24:44;101016.22;;;17.31;100.00
25498;BME280;13406;53.380;7.226;2022-09-17T14:30:31;100698.19;;;15.29;100.00
25498;BME280;13406;53.380;7.226;2022-09-17T14:35:46;100721.22;;;16.02;100.00
25498;BME280;13406;53.380;7.226;2022-09-17T14:38:49;100994.28;;;17.85;100.00
25498;BME280;13406;53.380;7.226;2022-09-17T14:41:30;100908.03;;;16.31;100.00
25498;BME280;13406;53.380;7.226;2022-09-17T14:44:01;100935.56;;;16.04;100.00
25498;BME280;13406;53.380;7.226;2022-09-17T14:46:38;100642.41;;;13.72;100.00
25498;BME280;13406;53.380;7.226;2022-09-17T14:49:21;100931.47;;;16.25;100.00
25498;BME280;13406;53.380;7.226;2022-09-17T14:51:48;101023.59;;;16.84;100.00
25498;BME280;13406;53.380;7.226;2022-09-17T14:54:33;101015.66;;;17.06;100.00
25498;BME280;13406;53.380;7.226;2022-09-17T14:56:59;101021.66;;;17.31;100.00
25498;BME280;13406;53.380;7.226;2022-09-17T15:04:54;101015.78;;;17.23;100.00
25498;BME280;13406;53.380;7.226;2022-09-17T15:07:20;100955.59;;;16.38;100.00
25498;BME280;13406;53.380;7.226;2022-09-17T15:09:46;100937.22;;;16.28;100.00
25498;BME280;13406;53.380;7.226;2022-09-17T15:12:15;100903.56;;;16.24;100.00
25498;BME280;13406;53.380;7.226;2022-09-17T15:14:42;100884.13;;;15.92;100.00
25498;BME280;13406;53.380;7.226;2022-09-17T15:17:17;100993.41;;;17.84;100.00
25498;BME280;13406;53.380;7.226;2022-09-17T15:19:51;100946.53;;;16.91;100.00
25498;BME280;13406;53.380;7.226;2022-09-17T15:22:25;100907.31;;;16.70;100.00
25498;BME280;13406;53.380;7.226;2022-09-17T15:24:55;101030.09;;;17.47;100.00
25498;BME280;13406;53.380;7.226;2022-09-17T15:27:31;100969.16;;;16.62;100.00
25498;BME280;13406;53.380;7.226;2022-09-17T15:32:28;100963.84;;;15.78;100.00
25498;BME280;13406;53.380;7.226;2022-09-17T15:37:47;100981.88;;;15.66;100.00
25498;BME280;13406;53.380;7.226;2022-09-17T15:40:29;101055.13;;;15.82;100.00
25498;BME280;13406;53.380;7.226;2022-09-17T15:43:05;101040.84;;;16.06;100.00
25498;BME280;13406;53.380;7.226;2022-09-17T15:45:38;100936.13;;;15.64;100.00
25498;BME280;13406;53.380;7.226;2022-09-17T15:50:56;101043.06;;;16.39;100.00
25498;BME280;13406;53.380;7.226;2022-09-17T15:53:24;101047.81;;;16.67;100.00
25498;BME280;13406;53.380;7.226;2022-09-17T15:56:17;101040.19;;;16.87;100.00
25498;BME280;13406;53.380;7.226;2022-09-17T16:08:59;100964.81;;;19.17;100.00
25498;BME280;13406;53.380;7.226;2022-09-17T16:11:29;101013.38;;;23.35;100.00